sensor_id;sensor_type;location;lat;lon;timestamp;P1;durP1;ratioP1;P2;durP2;ratioP2
54959;SDS011;40860;51.710;8.736;2022-12-31T00:03:05;0.47;;;0.30;;
54959;SDS011;40860;51.710;8.736;2022-12-31T00:07:09;0.47;;;0.40;;
54959;SDS011;40860;51.710;8.736;2022-12-31T00:11:12;0.30;;;0.30;;
54959;SDS011;40860;51.710;8.736;2022-12-31T00:15:17;0.28;;;0.28;;
54959;SDS011;40860;51.710;8.736;2022-12-31T00:19:20;0.30;;;0.20;;
54959;SDS011;40860;51.710;8.736;2022-12-31T00:23:22;0.20;;;0.20;;
54959;SDS011;40860;51.710;8.736;2022-12-31T00:27:25;0.30;;;0.30;;
54959;SDS011;40860;51.710;8.736;2022-12-31T00:31:32;0.70;;;0.20;;
54959;SDS011;40860;51.710;8.736;2022-12-31T00:35:37;0.57;;;0.20;;
54959;SDS011;40860;51.710;8.736;2022-12-31T00:39:39;0.17;;;0.17;;
54959;SDS011;40860;51.710;8.736;2022-12-31T00:43:42;0.10;;;0.10;;
54959;SDS011;40860;51.710;8.736;2022-12-31T00:47:47;0.28;;;0.20;;
54959;SDS011;40860;51.710;8.736;2022-12-31T00:51:49;0.30;;;0.30;;
54959;SDS011;40860;51.710;8.736;2022-12-31T00:55:57;0.10;;;0.10;;
54959;SDS011;40860;51.710;8.736;2022-12-31T01:00:01;0.20;;;0.20;;
54959;SDS011;40860;51.710;8.736;2022-12-31T01:04:06;0.15;;;0.15;;
54959;SDS011;40860;51.710;8.736;2022-12-31T01:08:11;0.22;;;0.15;;
54959;SDS011;40860;51.710;8.736;2022-12-31T01:12:14;0.47;;;0.28;;
54959;SDS011;40860;51.710;8.736;2022-12-31T01:16:18;0.30;;;0.20;;
54959;SDS011;40860;51.710;8.736;2022-12-31T01:20:28;0.20;;;0.20;;
54959;SDS011;40860;51.710;8.736;2022-12-31T01:24:31;0.43;;;0.40;;
54959;SDS011;40860;51.710;8.736;2022-12-31T01:28:35;0.63;;;0.20;;
54959;SDS011;40860;51.710;8.736;2022-12-31T01:32:42;0.30;;;0.30;;
54959;SDS011;40860;51.710;8.736;2022-12-31T01:36:46;1.02;;;0.35;;
54959;SDS011;40860;51.710;8.736;2022-12-31T01:40:49;0.52;;;0.20;;
54959;SDS011;40860;51.710;8.736;2022-12-31T01:44:53;0.20;;;0.20;;
54959;SDS011;40860;51.710;8.736;2022-12-31T01:48:58;0.63;;;0.40;;
54959;SDS011;40860;51.710;8.736;2022-12-31T01:53:04;0.88;;;0.30;;
54959;SDS011;40860;51.710;8.736;2022-12-31T01:57:09;1.60;;;0.22;;
54959;SDS011;40860;51.710;8.736;2022-12-31T02:01:14;0.20;;;0.20;;
54959;SDS011;40860;51.710;8.736;2022-12-31T02:05:24;0.20;;;0.20;;
54959;SDS011;40860;51.710;8.736;2022-12-31T02:09:34;0.60;;;0.20;;
54959;SDS011;40860;51.710;8.736;2022-12-31T02:13:39;0.38;;;0.38;;
54959;SDS011;40860;51.710;8.736;2022-12-31T02:17:45;0.45;;;0.35;;
54959;SDS011;40860;51.710;8.736;2022-12-31T02:21:58;0.20;;;0.20;;
54959;SDS011;40860;51.710;8.736;2022-12-31T02:26:25;0.20;;;0.20;;
54959;SDS011;40860;51.710;8.736;2022-12-31T02:30:44;0.47;;;0.20;;
54959;SDS011;40860;51.710;8.736;2022-12-31T02:34:51;0.45;;;0.30;;
54959;SDS011;40860;51.710;8.736;2022-12-31T02:38:57;0.20;;;0.10;;
54959;SDS011;40860;51.710;8.736;2022-12-31T02:43:01;0.10;;;0.10;;
54959;SDS011;40860;51.710;8.736;2022-12-31T02:47:09;0.28;;;0.10;;
54959;SDS011;40860;51.710;8.736;2022-12-31T02:51:26;0.10;;;0.10;;
54959;SDS011;40860;51.710;8.736;2022-12-31T02:55:36;0.13;;;0.00;;
54959;SDS011;40860;51.710;8.736;2022-12-31T02:59:48;0.08;;;0.08;;
54959;SDS011;40860;51.710;8.736;2022-12-31T03:04:12;0.68;;;0.10;;
54959;SDS011;40860;51.710;8.736;2022-12-31T03:08:34;0.00;;;0.00;;
54959;SDS011;40860;51.710;8.736;2022-12-31T03:12:57;0.05;;;0.00;;
54959;SDS011;40860;51.710;8.736;2022-12-31T03:17:02;0.22;;;0.00;;
54959;SDS011;40860;51.710;8.736;2022-12-31T03:21:11;0.00;;;0.00;;
54959;SDS011;40860;51.710;8.736;2022-12-31T03:25:32;0.00;;;0.00;;
54959;SDS011;40860;51.710;8.736;2022-12-31T03:29:35;0.10;;;0.10;;
54959;SDS011;40860;51.710;8.736;2022-12-31T03:33:39;0.17;;;0.05;;
54959;SDS011;40860;51.710;8.736;2022-12-31T03:37:44;0.00;;;0.00;;
54959;SDS011;40860;51.710;8.736;2022-12-31T03:41:48;0.00;;;0.00;;
54959;SDS011;40860;51.710;8.736;2022-12-31T03:45:51;0.08;;;0.08;;
54959;SDS011;40860;51.710;8.736;2022-12-31T03:49:56;0.00;;;0.00;;
54959;SDS011;40860;51.710;8.736;2022-12-31T03:54:00;0.00;;;0.00;;
54959;SDS011;40860;51.710;8.736;2022-12-31T03:58:03;0.10;;;0.05;;
54959;SDS011;40860;51.710;8.736;2022-12-31T04:02:06;0.00;;;0.00;;
54959;SDS011;40860;51.710;8.736;2022-12-31T04:06:09;0.10;;;0.00;;
54959;SDS011;40860;51.710;8.736;2022-12-31T04:10:15;0.10;;;0.10;;
54959;SDS011;40860;51.710;8.736;2022-12-31T04:14:18;1.45;;;0.22;;
54959;SDS011;40860;51.710;8.736;2022-12-31T04:18:23;0.00;;;0.00;;
54959;SDS011;40860;51.710;8.736;2022-12-31T04:22:26;0.85;;;0.10;;
54959;SDS011;40860;51.710;8.736;2022-12-31T04:26:31;0.70;;;0.30;;
54959;SDS011;40860;51.710;8.736;2022-12-31T04:30:35;0.20;;;0.10;;
54959;SDS011;40860;51.710;8.736;2022-12-31T04:34:38;0.00;;;0.00;;
54959;SDS011;40860;51.710;8.736;2022-12-31T04:38:41;0.10;;;0.10;;
54959;SDS011;40860;51.710;8.736;2022-12-31T04:42:48;0.00;;;0.00;;
54959;SDS011;40860;51.710;8.736;2022-12-31T04:46:51;1.23;;;0.10;;
54959;SDS011;40860;51.710;8.736;2022-12-31T04:50:55;0.00;;;0.00;;
54959;SDS011;40860;51.710;8.736;2022-12-31T04:55:06;0.00;;;0.00;;
54959;SDS011;40860;51.710;8.736;2022-12-31T04:59:16;0.35;;;0.00;;
54959;SDS011;40860;51.710;8.736;2022-12-31T05:03:26;0.45;;;0.00;;
54959;SDS011;40860;51.710;8.736;2022-12-31T05:07:29;0.03;;;0.00;;
54959;SDS011;40860;51.710;8.736;2022-12-31T05:11:32;0.10;;;0.00;;
54959;SDS011;40860;51.710;8.736;2022-12-31T05:15:37;0.20;;;0.00;;
54959;SDS011;40860;51.710;8.736;2022-12-31T05:19:43;0.10;;;0.10;;
54959;SDS011;40860;51.710;8.736;2022-12-31T05:23:46;0.10;;;0.00;;
54959;SDS011;40860;51.710;8.736;2022-12-31T05:27:50;0.00;;;0.00;;
54959;SDS011;40860;51.710;8.736;2022-12-31T05:31:54;0.40;;;0.20;;
54959;SDS011;40860;51.710;8.736;2022-12-31T05:35:57;0.00;;;0.00;;
54959;SDS011;40860;51.710;8.736;2022-12-31T05:40:00;0.00;;;0.00;;
54959;SDS011;40860;51.710;8.736;2022-12-31T05:44:03;0.00;;;0.00;;
54959;SDS011;40860;51.710;8.736;2022-12-31T05:48:07;0.00;;;0.00;;
54959;SDS011;40860;51.710;8.736;2022-12-31T05:52:10;0.55;;;0.10;;
54959;SDS011;40860;51.710;8.736;2022-12-31T05:56:13;0.50;;;0.00;;
54959;SDS011;40860;51.710;8.736;2022-12-31T06:00:18;0.52;;;0.10;;
54959;SDS011;40860;51.710;8.736;2022-12-31T06:04:22;0.63;;;0.00;;
54959;SDS011;40860;51.710;8.736;2022-12-31T06:08:26;0.13;;;0.10;;
54959;SDS011;40860;51.710;8.736;2022-12-31T06:12:28;0.38;;;0.08;;
54959;SDS011;40860;51.710;8.736;2022-12-31T06:16:31;1.05;;;0.10;;
54959;SDS011;40860;51.710;8.736;2022-12-31T06:20:36;0.10;;;0.10;;
54959;SDS011;40860;51.710;8.736;2022-12-31T06:24:39;0.60;;;0.17;;
54959;SDS011;40860;51.710;8.736;2022-12-31T06:28:42;0.98;;;0.10;;
54959;SDS011;40860;51.710;8.736;2022-12-31T06:32:45;0.28;;;0.10;;
54959;SDS011;40860;51.710;8.736;2022-12-31T06:36:49;0.45;;;0.40;;
54959;SDS011;40860;51.710;8.736;2022-12-31T06:40:52;0.90;;;0.10;;
54959;SDS011;40860;51.710;8.736;2022-12-31T06:44:55;0.82;;;0.10;;
54959;SDS011;40860;51.710;8.736;2022-12-31T06:48:58;0.30;;;0.20;;
54959;SDS011;40860;51.710;8.736;2022-12-31T06:53:02;0.17;;;0.10;;
54959;SDS011;40860;51.710;8.736;2022-12-31T06:57:07;0.57;;;0.20;;
54959;SDS011;40860;51.710;8.736;2022-12-31T07:01:16;0.70;;;0.28;;
54959;SDS011;40860;51.710;8.736;2022-12-31T07:05:32;0.20;;;0.20;;
54959;SDS011;40860;51.710;8.736;2022-12-31T07:09:43;0.20;;;0.20;;
54959;SDS011;40860;51.710;8.736;2022-12-31T07:13:56;0.50;;;0.30;;
54959;SDS011;40860;51.710;8.736;2022-12-31T07:18:05;0.20;;;0.20;;
54959;SDS011;40860;51.710;8.736;2022-12-31T07:22:15;1.85;;;0.22;;
54959;SDS011;40860;51.710;8.736;2022-12-31T07:26:22;0.85;;;0.20;;
54959;SDS011;40860;51.710;8.736;2022-12-31T07:30:39;0.95;;;0.20;;
54959;SDS011;40860;51.710;8.736;2022-12-31T07:34:49;0.52;;;0.20;;
54959;SDS011;40860;51.710;8.736;2022-12-31T07:39:04;0.85;;;0.40;;
54959;SDS011;40860;51.710;8.736;2022-12-31T07:43:12;0.80;;;0.20;;
54959;SDS011;40860;51.710;8.736;2022-12-31T07:47:19;0.40;;;0.20;;
54959;SDS011;40860;51.710;8.736;2022-12-31T07:51:24;0.43;;;0.22;;
54959;SDS011;40860;51.710;8.736;2022-12-31T07:55:28;2.45;;;0.30;;
54959;SDS011;40860;51.710;8.736;2022-12-31T07:59:35;0.68;;;0.30;;
54959;SDS011;40860;51.710;8.736;2022-12-31T08:03:51;2.13;;;0.40;;
54959;SDS011;40860;51.710;8.736;2022-12-31T08:08:03;1.40;;;0.22;;
54959;SDS011;40860;51.710;8.736;2022-12-31T08:12:18;1.70;;;0.30;;
54959;SDS011;40860;51.710;8.736;2022-12-31T08:16:23;1.95;;;0.30;;
54959;SDS011;40860;51.710;8.736;2022-12-31T08:20:26;2.97;;;0.45;;
54959;SDS011;40860;51.710;8.736;2022-12-31T08:24:34;1.42;;;0.47;;
54959;SDS011;40860;51.710;8.736;2022-12-31T08:28:51;0.68;;;0.47;;
54959;SDS011;40860;51.710;8.736;2022-12-31T08:33:04;1.15;;;0.50;;
54959;SDS011;40860;51.710;8.736;2022-12-31T08:37:14;1.23;;;0.40;;
54959;SDS011;40860;51.710;8.736;2022-12-31T08:41:27;1.95;;;0.38;;
54959;SDS011;40860;51.710;8.736;2022-12-31T08:45:45;1.20;;;0.52;;
54959;SDS011;40860;51.710;8.736;2022-12-31T08:49:51;1.25;;;0.38;;
54959;SDS011;40860;51.710;8.736;2022-12-31T08:53:56;1.58;;;0.55;;
54959;SDS011;40860;51.710;8.736;2022-12-31T08:58:05;2.00;;;0.40;;
54959;SDS011;40860;51.710;8.736;2022-12-31T09:02:19;1.10;;;0.50;;
54959;SDS011;40860;51.710;8.736;2022-12-31T09:06:39;1.05;;;0.40;;
54959;SDS011;40860;51.710;8.736;2022-12-31T09:10:45;1.15;;;0.30;;
54959;SDS011;40860;51.710;8.736;2022-12-31T09:14:56;1.83;;;0.47;;
54959;SDS011;40860;51.710;8.736;2022-12-31T09:19:06;1.92;;;0.60;;
54959;SDS011;40860;51.710;8.736;2022-12-31T09:23:11;1.65;;;1.08;;
54959;SDS011;40860;51.710;8.736;2022-12-31T09:27:16;1.55;;;0.90;;
54959;SDS011;40860;51.710;8.736;2022-12-31T09:31:29;1.77;;;0.60;;
54959;SDS011;40860;51.710;8.736;2022-12-31T09:35:37;0.60;;;0.40;;
54959;SDS011;40860;51.710;8.736;2022-12-31T09:39:47;1.08;;;0.40;;
54959;SDS011;40860;51.710;8.736;2022-12-31T09:48:42;1.17;;;0.40;;
54959;SDS011;40860;51.710;8.736;2022-12-31T09:53:17;1.20;;;0.40;;
54959;SDS011;40860;51.710;8.736;2022-12-31T09:57:47;0.85;;;0.85;;
54959;SDS011;40860;51.710;8.736;2022-12-31T10:02:01;2.10;;;0.80;;
54959;SDS011;40860;51.710;8.736;2022-12-31T10:06:23;1.63;;;0.47;;
54959;SDS011;40860;51.710;8.736;2022-12-31T10:10:32;2.05;;;0.30;;
54959;SDS011;40860;51.710;8.736;2022-12-31T10:14:46;2.00;;;0.93;;
54959;SDS011;40860;51.710;8.736;2022-12-31T10:23:49;1.02;;;0.60;;
54959;SDS011;40860;51.710;8.736;2022-12-31T10:28:04;0.63;;;0.43;;
54959;SDS011;40860;51.710;8.736;2022-12-31T10:32:17;0.90;;;0.60;;
54959;SDS011;40860;51.710;8.736;2022-12-31T10:36:30;1.55;;;0.40;;
54959;SDS011;40860;51.710;8.736;2022-12-31T10:45:47;2.17;;;0.60;;
54959;SDS011;40860;51.710;8.736;2022-12-31T10:59:45;2.50;;;0.80;;
54959;SDS011;40860;51.710;8.736;2022-12-31T11:08:56;3.85;;;1.45;;
54959;SDS011;40860;51.710;8.736;2022-12-31T11:13:56;2.42;;;0.82;;
54959;SDS011;40860;51.710;8.736;2022-12-31T11:18:12;1.83;;;0.70;;
54959;SDS011;40860;51.710;8.736;2022-12-31T11:22:27;1.17;;;0.68;;
54959;SDS011;40860;51.710;8.736;2022-12-31T11:26:49;1.60;;;0.60;;
54959;SDS011;40860;51.710;8.736;2022-12-31T11:31:14;1.00;;;0.40;;
54959;SDS011;40860;51.710;8.736;2022-12-31T11:35:42;2.17;;;0.80;;
54959;SDS011;40860;51.710;8.736;2022-12-31T11:40:14;2.15;;;0.80;;
54959;SDS011;40860;51.710;8.736;2022-12-31T11:44:35;2.30;;;0.90;;
54959;SDS011;40860;51.710;8.736;2022-12-31T11:48:49;1.77;;;0.82;;
54959;SDS011;40860;51.710;8.736;2022-12-31T11:57:42;1.92;;;0.77;;
54959;SDS011;40860;51.710;8.736;2022-12-31T12:01:53;1.73;;;0.60;;
54959;SDS011;40860;51.710;8.736;2022-12-31T12:06:00;2.40;;;0.90;;
54959;SDS011;40860;51.710;8.736;2022-12-31T12:10:06;2.80;;;1.30;;
54959;SDS011;40860;51.710;8.736;2022-12-31T12:14:25;3.08;;;0.98;;
54959;SDS011;40860;51.710;8.736;2022-12-31T12:18:34;1.95;;;0.88;;
54959;SDS011;40860;51.710;8.736;2022-12-31T12:22:47;2.42;;;0.63;;
54959;SDS011;40860;51.710;8.736;2022-12-31T12:26:51;2.15;;;0.88;;
54959;SDS011;40860;51.710;8.736;2022-12-31T12:30:56;1.98;;;0.60;;
54959;SDS011;40860;51.710;8.736;2022-12-31T12:35:01;2.70;;;0.80;;
54959;SDS011;40860;51.710;8.736;2022-12-31T12:39:18;2.78;;;0.57;;
54959;SDS011;40860;51.710;8.736;2022-12-31T12:43:23;2.55;;;0.70;;
54959;SDS011;40860;51.710;8.736;2022-12-31T12:47:28;1.80;;;0.80;;
54959;SDS011;40860;51.710;8.736;2022-12-31T12:51:35;1.42;;;0.68;;
54959;SDS011;40860;51.710;8.736;2022-12-31T12:55:51;1.27;;;0.55;;
54959;SDS011;40860;51.710;8.736;2022-12-31T13:00:07;2.20;;;0.80;;
54959;SDS011;40860;51.710;8.736;2022-12-31T13:04:20;3.33;;;0.75;;
54959;SDS011;40860;51.710;8.736;2022-12-31T13:08:42;2.10;;;0.70;;
54959;SDS011;40860;51.710;8.736;2022-12-31T13:12:59;2.47;;;0.80;;
54959;SDS011;40860;51.710;8.736;2022-12-31T13:17:29;2.47;;;0.63;;
54959;SDS011;40860;51.710;8.736;2022-12-31T13:21:44;1.13;;;0.70;;
54959;SDS011;40860;51.710;8.736;2022-12-31T13:26:00;1.58;;;0.70;;
54959;SDS011;40860;51.710;8.736;2022-12-31T13:30:12;3.15;;;0.90;;
54959;SDS011;40860;51.710;8.736;2022-12-31T13:34:28;2.90;;;1.20;;
54959;SDS011;40860;51.710;8.736;2022-12-31T13:38:35;2.25;;;0.90;;
54959;SDS011;40860;51.710;8.736;2022-12-31T13:42:42;4.60;;;2.33;;
54959;SDS011;40860;51.710;8.736;2022-12-31T13:46:55;2.55;;;1.20;;
54959;SDS011;40860;51.710;8.736;2022-12-31T13:51:02;1.27;;;0.80;;
54959;SDS011;40860;51.710;8.736;2022-12-31T13:55:10;2.00;;;0.90;;
54959;SDS011;40860;51.710;8.736;2022-12-31T13:59:20;2.33;;;1.08;;
54959;SDS011;40860;51.710;8.736;2022-12-31T14:03:33;3.40;;;1.20;;
54959;SDS011;40860;51.710;8.736;2022-12-31T14:07:46;1.88;;;1.10;;
54959;SDS011;40860;51.710;8.736;2022-12-31T14:11:56;2.53;;;0.90;;
54959;SDS011;40860;51.710;8.736;2022-12-31T14:16:18;1.88;;;1.05;;
54959;SDS011;40860;51.710;8.736;2022-12-31T14:20:38;1.90;;;0.80;;
54959;SDS011;40860;51.710;8.736;2022-12-31T14:24:49;2.13;;;0.90;;
54959;SDS011;40860;51.710;8.736;2022-12-31T14:28:57;3.08;;;1.08;;
54959;SDS011;40860;51.710;8.736;2022-12-31T14:33:14;3.47;;;0.80;;
54959;SDS011;40860;51.710;8.736;2022-12-31T14:37:31;1.33;;;0.90;;
54959;SDS011;40860;51.710;8.736;2022-12-31T14:41:43;3.88;;;1.13;;
54959;SDS011;40860;51.710;8.736;2022-12-31T14:46:00;2.45;;;0.88;;
54959;SDS011;40860;51.710;8.736;2022-12-31T14:50:13;2.67;;;0.95;;
54959;SDS011;40860;51.710;8.736;2022-12-31T14:54:23;3.25;;;1.23;;
54959;SDS011;40860;51.710;8.736;2022-12-31T14:58:30;2.60;;;0.95;;
54959;SDS011;40860;51.710;8.736;2022-12-31T15:02:34;1.25;;;0.80;;
54959;SDS011;40860;51.710;8.736;2022-12-31T15:06:49;3.17;;;1.30;;
54959;SDS011;40860;51.710;8.736;2022-12-31T15:11:06;1.92;;;0.80;;
54959;SDS011;40860;51.710;8.736;2022-12-31T15:15:28;3.13;;;1.85;;
54959;SDS011;40860;51.710;8.736;2022-12-31T15:19:59;3.75;;;1.20;;
54959;SDS011;40860;51.710;8.736;2022-12-31T15:24:26;4.22;;;1.20;;
54959;SDS011;40860;51.710;8.736;2022-12-31T15:28:32;4.10;;;2.00;;
54959;SDS011;40860;51.710;8.736;2022-12-31T15:32:38;1.98;;;0.95;;
54959;SDS011;40860;51.710;8.736;2022-12-31T15:36:50;2.20;;;1.10;;
54959;SDS011;40860;51.710;8.736;2022-12-31T15:40:56;3.33;;;1.08;;
54959;SDS011;40860;51.710;8.736;2022-12-31T15:45:10;3.13;;;1.00;;
54959;SDS011;40860;51.710;8.736;2022-12-31T15:49:21;2.03;;;0.70;;
54959;SDS011;40860;51.710;8.736;2022-12-31T15:53:26;3.00;;;0.98;;
54959;SDS011;40860;51.710;8.736;2022-12-31T15:57:37;2.30;;;0.93;;
54959;SDS011;40860;51.710;8.736;2022-12-31T16:01:42;1.55;;;0.80;;
54959;SDS011;40860;51.710;8.736;2022-12-31T16:05:46;2.30;;;1.15;;
54959;SDS011;40860;51.710;8.736;2022-12-31T16:09:50;4.57;;;1.40;;
54959;SDS011;40860;51.710;8.736;2022-12-31T16:13:56;2.25;;;0.93;;
54959;SDS011;40860;51.710;8.736;2022-12-31T16:18:03;4.00;;;1.08;;
54959;SDS011;40860;51.710;8.736;2022-12-31T16:22:08;1.83;;;1.10;;
54959;SDS011;40860;51.710;8.736;2022-12-31T16:26:27;1.77;;;0.90;;
54959;SDS011;40860;51.710;8.736;2022-12-31T16:30:33;3.85;;;1.65;;
54959;SDS011;40860;51.710;8.736;2022-12-31T16:34:37;2.25;;;0.88;;
54959;SDS011;40860;51.710;8.736;2022-12-31T16:38:39;1.98;;;1.13;;
54959;SDS011;40860;51.710;8.736;2022-12-31T16:42:44;2.40;;;1.10;;
54959;SDS011;40860;51.710;8.736;2022-12-31T16:46:49;2.95;;;1.30;;
54959;SDS011;40860;51.710;8.736;2022-12-31T16:50:53;2.35;;;1.00;;
54959;SDS011;40860;51.710;8.736;2022-12-31T16:54:57;3.35;;;1.10;;
54959;SDS011;40860;51.710;8.736;2022-12-31T16:59:01;2.28;;;1.50;;
54959;SDS011;40860;51.710;8.736;2022-12-31T17:03:12;2.92;;;1.05;;
54959;SDS011;40860;51.710;8.736;2022-12-31T17:07:23;2.85;;;1.23;;
54959;SDS011;40860;51.710;8.736;2022-12-31T17:11:30;2.90;;;0.95;;
54959;SDS011;40860;51.710;8.736;2022-12-31T17:15:37;1.65;;;1.08;;
54959;SDS011;40860;51.710;8.736;2022-12-31T17:19:46;2.28;;;1.15;;
54959;SDS011;40860;51.710;8.736;2022-12-31T17:23:52;2.58;;;1.40;;
54959;SDS011;40860;51.710;8.736;2022-12-31T17:27:58;3.45;;;1.15;;
54959;SDS011;40860;51.710;8.736;2022-12-31T17:32:03;1.88;;;1.08;;
54959;SDS011;40860;51.710;8.736;2022-12-31T17:36:21;4.57;;;1.73;;
54959;SDS011;40860;51.710;8.736;2022-12-31T17:40:34;3.53;;;1.70;;
54959;SDS011;40860;51.710;8.736;2022-12-31T17:44:53;6.88;;;1.52;;
54959;SDS011;40860;51.710;8.736;2022-12-31T17:49:00;1.73;;;1.23;;
54959;SDS011;40860;51.710;8.736;2022-12-31T17:53:09;2.30;;;1.23;;
54959;SDS011;40860;51.710;8.736;2022-12-31T17:57:20;3.47;;;1.38;;
54959;SDS011;40860;51.710;8.736;2022-12-31T18:01:26;3.70;;;2.03;;
54959;SDS011;40860;51.710;8.736;2022-12-31T18:05:29;3.72;;;1.33;;
54959;SDS011;40860;51.710;8.736;2022-12-31T18:09:34;2.78;;;1.60;;
54959;SDS011;40860;51.710;8.736;2022-12-31T18:13:36;4.03;;;1.85;;
54959;SDS011;40860;51.710;8.736;2022-12-31T18:17:39;1.92;;;1.17;;
54959;SDS011;40860;51.710;8.736;2022-12-31T18:21:43;2.53;;;1.20;;
54959;SDS011;40860;51.710;8.736;2022-12-31T18:25:47;4.30;;;2.13;;
54959;SDS011;40860;51.710;8.736;2022-12-31T18:29:50;2.75;;;1.35;;
54959;SDS011;40860;51.710;8.736;2022-12-31T18:33:54;2.25;;;1.23;;
54959;SDS011;40860;51.710;8.736;2022-12-31T18:37:58;3.40;;;1.17;;
54959;SDS011;40860;51.710;8.736;2022-12-31T18:42:02;2.70;;;1.50;;
54959;SDS011;40860;51.710;8.736;2022-12-31T18:46:07;3.92;;;1.40;;
54959;SDS011;40860;51.710;8.736;2022-12-31T18:50:12;3.58;;;1.27;;
54959;SDS011;40860;51.710;8.736;2022-12-31T18:54:18;3.83;;;1.70;;
54959;SDS011;40860;51.710;8.736;2022-12-31T18:58:23;3.85;;;1.65;;
54959;SDS011;40860;51.710;8.736;2022-12-31T19:02:26;2.67;;;1.30;;
54959;SDS011;40860;51.710;8.736;2022-12-31T19:06:29;5.97;;;1.73;;
54959;SDS011;40860;51.710;8.736;2022-12-31T19:10:32;2.22;;;1.15;;
54959;SDS011;40860;51.710;8.736;2022-12-31T19:14:37;2.65;;;1.65;;
54959;SDS011;40860;51.710;8.736;2022-12-31T19:18:40;3.38;;;1.42;;
54959;SDS011;40860;51.710;8.736;2022-12-31T19:22:43;5.30;;;1.35;;
54959;SDS011;40860;51.710;8.736;2022-12-31T19:26:46;2.53;;;1.50;;
54959;SDS011;40860;51.710;8.736;2022-12-31T19:30:51;3.92;;;1.42;;
54959;SDS011;40860;51.710;8.736;2022-12-31T19:34:54;3.47;;;1.50;;
54959;SDS011;40860;51.710;8.736;2022-12-31T19:38:57;4.55;;;1.48;;
54959;SDS011;40860;51.710;8.736;2022-12-31T19:43:00;3.90;;;1.35;;
54959;SDS011;40860;51.710;8.736;2022-12-31T19:47:04;4.32;;;1.50;;
54959;SDS011;40860;51.710;8.736;2022-12-31T19:51:07;3.33;;;1.30;;
54959;SDS011;40860;51.710;8.736;2022-12-31T19:55:12;5.72;;;1.80;;
54959;SDS011;40860;51.710;8.736;2022-12-31T19:59:16;3.63;;;1.60;;
54959;SDS011;40860;51.710;8.736;2022-12-31T20:03:21;4.82;;;1.50;;
54959;SDS011;40860;51.710;8.736;2022-12-31T20:07:23;4.53;;;1.25;;
54959;SDS011;40860;51.710;8.736;2022-12-31T20:11:27;2.63;;;1.58;;
54959;SDS011;40860;51.710;8.736;2022-12-31T20:15:30;5.50;;;1.85;;
54959;SDS011;40860;51.710;8.736;2022-12-31T20:19:35;3.95;;;1.48;;
54959;SDS011;40860;51.710;8.736;2022-12-31T20:23:37;4.80;;;1.67;;
54959;SDS011;40860;51.710;8.736;2022-12-31T20:27:40;4.35;;;1.40;;
54959;SDS011;40860;51.710;8.736;2022-12-31T20:31:43;4.68;;;1.80;;
54959;SDS011;40860;51.710;8.736;2022-12-31T20:35:47;6.82;;;1.77;;
54959;SDS011;40860;51.710;8.736;2022-12-31T20:39:50;4.20;;;1.70;;
54959;SDS011;40860;51.710;8.736;2022-12-31T20:43:53;4.38;;;2.03;;
54959;SDS011;40860;51.710;8.736;2022-12-31T20:47:55;5.85;;;2.03;;
54959;SDS011;40860;51.710;8.736;2022-12-31T20:52:00;5.97;;;1.63;;
54959;SDS011;40860;51.710;8.736;2022-12-31T20:56:04;6.70;;;2.00;;
54959;SDS011;40860;51.710;8.736;2022-12-31T21:00:08;5.97;;;1.90;;
54959;SDS011;40860;51.710;8.736;2022-12-31T21:04:12;7.80;;;2.20;;
54959;SDS011;40860;51.710;8.736;2022-12-31T21:08:17;5.70;;;1.90;;
54959;SDS011;40860;51.710;8.736;2022-12-31T21:12:20;5.40;;;1.85;;
54959;SDS011;40860;51.710;8.736;2022-12-31T21:16:41;7.72;;;1.95;;
54959;SDS011;40860;51.710;8.736;2022-12-31T21:20:44;7.35;;;1.98;;
54959;SDS011;40860;51.710;8.736;2022-12-31T21:24:49;4.63;;;1.73;;
54959;SDS011;40860;51.710;8.736;2022-12-31T21:28:52;5.53;;;1.50;;
54959;SDS011;40860;51.710;8.736;2022-12-31T21:32:55;4.60;;;2.00;;
54959;SDS011;40860;51.710;8.736;2022-12-31T21:36:57;5.55;;;1.80;;
54959;SDS011;40860;51.710;8.736;2022-12-31T21:41:01;8.18;;;2.10;;
54959;SDS011;40860;51.710;8.736;2022-12-31T21:45:05;5.00;;;2.20;;
54959;SDS011;40860;51.710;8.736;2022-12-31T21:49:09;7.07;;;1.70;;
54959;SDS011;40860;51.710;8.736;2022-12-31T21:53:11;8.10;;;2.25;;
54959;SDS011;40860;51.710;8.736;2022-12-31T21:57:23;5.35;;;2.25;;
54959;SDS011;40860;51.710;8.736;2022-12-31T22:01:27;4.93;;;1.83;;
54959;SDS011;40860;51.710;8.736;2022-12-31T22:05:49;5.05;;;1.92;;
54959;SDS011;40860;51.710;8.736;2022-12-31T22:09:53;4.28;;;1.70;;
54959;SDS011;40860;51.710;8.736;2022-12-31T22:13:57;6.72;;;2.35;;
54959;SDS011;40860;51.710;8.736;2022-12-31T22:18:00;7.68;;;1.98;;
54959;SDS011;40860;51.710;8.736;2022-12-31T22:22:03;6.50;;;1.98;;
54959;SDS011;40860;51.710;8.736;2022-12-31T22:26:07;8.65;;;2.45;;
54959;SDS011;40860;51.710;8.736;2022-12-31T22:30:13;6.25;;;1.92;;
54959;SDS011;40860;51.710;8.736;2022-12-31T22:34:15;7.63;;;2.53;;
54959;SDS011;40860;51.710;8.736;2022-12-31T22:38:18;7.40;;;1.83;;
54959;SDS011;40860;51.710;8.736;2022-12-31T22:42:21;8.38;;;2.10;;
54959;SDS011;40860;51.710;8.736;2022-12-31T22:46:26;5.53;;;1.80;;
54959;SDS011;40860;51.710;8.736;2022-12-31T22:50:29;4.18;;;1.88;;
54959;SDS011;40860;51.710;8.736;2022-12-31T22:54:32;3.88;;;2.30;;
54959;SDS011;40860;51.710;8.736;2022-12-31T22:58:35;7.25;;;2.85;;
54959;SDS011;40860;51.710;8.736;2022-12-31T23:02:39;12.57;;;5.47;;
54959;SDS011;40860;51.710;8.736;2022-12-31T23:06:43;9.77;;;4.05;;
54959;SDS011;40860;51.710;8.736;2022-12-31T23:10:47;7.45;;;2.70;;
54959;SDS011;40860;51.710;8.736;2022-12-31T23:15:07;10.95;;;2.78;;
54959;SDS011;40860;51.710;8.736;2022-12-31T23:19:29;7.93;;;3.80;;
54959;SDS011;40860;51.710;8.736;2022-12-31T23:23:51;7.47;;;3.83;;
54959;SDS011;40860;51.710;8.736;2022-12-31T23:27:54;7.35;;;3.90;;
54959;SDS011;40860;51.710;8.736;2022-12-31T23:31:57;7.18;;;3.35;;
54959;SDS011;40860;51.710;8.736;2022-12-31T23:36:02;7.72;;;3.95;;
54959;SDS011;40860;51.710;8.736;2022-12-31T23:40:07;8.93;;;3.83;;
54959;SDS011;40860;51.710;8.736;2022-12-31T23:44:20;9.15;;;4.30;;
54959;SDS011;40860;51.710;8.736;2022-12-31T23:48:23;6.60;;;3.70;;
54959;SDS011;40860;51.710;8.736;2022-12-31T23:52:27;8.70;;;3.30;;
54959;SDS011;40860;51.710;8.736;2022-12-31T23:56:33;9.77;;;3.20;;
